Strona główna
METAR-TAF:

METAR-TAF

Lotnisko :

Port lotniczy Buochs

Buochs, Szwajcaria

Szerokość geograficzna: 46-58-28N, Długość geograficzna: 8-23-49E, wysokość: 449 m

Aktualna obserwacja pogody

Raport powstał 24 minut temu, godzina 21:50 UTC
Wiatr 8 kt od zachód, zmienny między południowy zachód i zachodnio-północny zachód
Temperatura 17°C
Wilgotność 36%
Ciśnienie 1025 hPa
Widzialność 10 km lub więcej
Zachmurzenie całkowite na wysokości 7500 ft

METAR: LSZC 232150Z AUTO 26008KT 220V290 9999 OVC075 17/02 Q1025

czas: 23:14 (22:14 UTC)


TAF: brakujący

Obserwacja i prognoza pogody dla ponad 4000 lotnisk (raport METAR i TAF).

Dostępne stacje oznaczono żółtymi i czerwonymi punktami na mapie.

Najedź kursorem aby zobaczyć nazwę stacji.

Kliknij aby zobaczyć obserwacje i prognozy pogody.

Aby zmienić mapę: kliknij na zielony przycisk z czarnym krzyżykiem, aby powiększyć; na zielony przycisk z myślnikiem, aby pomniejszyć; na zielone strzałki, aby przejść do map sąsiednich.


METAR-TAF: